createdAt,value
2022-09-03T00:00:24.385Z,100648.22
2022-09-03T00:03:08.515Z,100642.28
2022-09-03T00:05:59.774Z,100640.97
2022-09-03T00:08:46.749Z,100640.13
2022-09-03T00:11:19.456Z,100641.28
2022-09-03T00:13:51.299Z,100640.13
2022-09-03T00:16:25.057Z,100626.34
2022-09-03T00:18:57.181Z,100624.38
2022-09-03T00:21:44.133Z,100621.03
2022-09-03T00:24:15.033Z,100618.22
2022-09-03T00:26:45.450Z,100612.25
2022-09-03T00:29:20.325Z,100616.25
2022-09-03T00:32:04.607Z,100610.28
2022-09-03T00:34:42.205Z,100608.75
2022-09-03T00:37:14.409Z,100613.56
2022-09-03T00:39:42.331Z,100611.09
2022-09-03T00:42:09.636Z,100610.28
2022-09-03T00:44:45.780Z,100610.59
2022-09-03T00:47:12.602Z,100603.81
2022-09-03T00:49:57.528Z,100602.97
2022-09-03T00:53:03.348Z,100605.78
2022-09-03T00:56:02.671Z,100608.63
2022-09-03T00:58:30.054Z,100610.13
2022-09-03T01:00:56.995Z,100598.50
2022-09-03T01:03:32.588Z,100604.50
2022-09-03T01:06:09.325Z,100607.78
2022-09-03T01:08:42.229Z,100603.47
2022-09-03T01:11:27.788Z,100601.31
2022-09-03T01:14:08.259Z,100607.47
2022-09-03T01:16:45.567Z,100601.81
2022-09-03T01:19:12.203Z,100602.16
2022-09-03T01:21:49.982Z,100596.50
2022-09-03T01:24:31.900Z,100601.00
2022-09-03T01:27:22.278Z,100596.66
2022-09-03T01:29:59.264Z,100595.69
2022-09-03T01:32:31.566Z,100591.56
2022-09-03T01:35:11.899Z,100591.03
2022-09-03T01:37:57.891Z,100584.25
2022-09-03T01:40:32.061Z,100580.75
2022-09-03T01:43:10.122Z,100584.41
2022-09-03T01:45:36.762Z,100589.56
2022-09-03T01:48:03.434Z,100583.25
2022-09-03T01:50:37.739Z,100587.56
2022-09-03T01:53:25.878Z,100585.09
2022-09-03T01:55:57.281Z,100587.91
2022-09-03T01:58:31.842Z,100585.41
2022-09-03T02:01:03.041Z,100582.25
2022-09-03T02:03:41.232Z,100592.69
2022-09-03T02:06:09.697Z,100593.38
2022-09-03T02:08:37.021Z,100590.22
2022-09-03T02:11:07.276Z,100589.38
2022-09-03T02:13:41.693Z,100592.84
2022-09-03T02:16:16.956Z,100596.88
2022-09-03T02:18:46.966Z,100586.06
2022-09-03T02:21:16.930Z,100588.56
2022-09-03T02:23:44.227Z,100597.34
2022-09-03T02:26:12.250Z,100596.19
2022-09-03T02:28:38.910Z,100597.34
2022-09-03T02:31:05.830Z,100599.47
2022-09-03T02:33:43.272Z,100603.13
2022-09-03T02:36:11.359Z,100606.31
2022-09-03T02:38:38.262Z,100612.25
2022-09-03T02:41:05.035Z,100605.47
2022-09-03T02:43:31.624Z,100609.28
2022-09-03T02:46:02.131Z,100611.59
2022-09-03T02:48:28.788Z,100614.41
2022-09-03T02:50:55.388Z,100618.88
2022-09-03T02:53:22.085Z,100618.88
2022-09-03T02:55:48.820Z,100619.56
2022-09-03T02:58:15.613Z,100624.38
2022-09-03T03:00:42.349Z,100619.41
2022-09-03T03:03:08.954Z,100614.56
2022-09-03T03:05:47.332Z,100614.25
2022-09-03T03:08:15.440Z,100615.59
2022-09-03T03:10:45.033Z,100612.41
2022-09-03T03:13:12.336Z,100616.91
2022-09-03T03:15:39.120Z,100612.09
2022-09-03T03:18:06.196Z,100606.78
2022-09-03T03:20:32.869Z,100600.47
2022-09-03T03:23:01.852Z,100603.31
2022-09-03T03:25:28.660Z,100599.31
2022-09-03T03:27:57.192Z,100598.84
2022-09-03T03:30:24.508Z,100598.03
2022-09-03T03:32:53.446Z,100590.03
2022-09-03T03:35:20.162Z,100589.56
2022-09-03T03:37:46.867Z,100586.38
2022-09-03T03:40:14.025Z,100586.75
2022-09-03T03:42:40.611Z,100586.91
2022-09-03T03:45:07.572Z,100586.91
2022-09-03T03:47:34.834Z,100580.09
2022-09-03T03:50:01.497Z,100587.72
2022-09-03T03:52:28.381Z,100590.22
2022-09-03T03:54:55.550Z,100592.69
2022-09-03T03:57:23.250Z,100586.56
2022-09-03T03:59:50.415Z,100586.75
2022-09-03T04:02:17.884Z,100583.56
2022-09-03T04:04:44.558Z,100577.13
2022-09-03T04:07:11.168Z,100573.81
2022-09-03T04:09:37.996Z,100570.31
2022-09-03T04:12:07.770Z,100574.31
2022-09-03T04:14:35.385Z,100571.00
2022-09-03T04:17:03.251Z,100582.25
2022-09-03T04:19:30.424Z,100576.31
2022-09-03T04:21:57.395Z,100581.59
2022-09-03T04:24:24.235Z,100579.94
2022-09-03T04:26:50.866Z,100580.75
2022-09-03T04:29:18.553Z,100574.47
2022-09-03T04:32:05.191Z,100564.84
2022-09-03T04:34:32.260Z,100568.31
2022-09-03T04:36:59.354Z,100565.03
2022-09-03T04:39:26.391Z,100563.03
2022-09-03T04:41:53.218Z,100568.31
2022-09-03T04:44:20.109Z,100561.53
2022-09-03T04:46:48.428Z,100561.84
2022-09-03T04:49:15.330Z,100562.81
2022-09-03T04:51:42.227Z,100575.28
2022-09-03T04:54:10.117Z,100573.63
2022-09-03T04:56:36.841Z,100572.97
2022-09-03T04:59:08.012Z,100572.16
2022-09-03T05:01:35.487Z,100565.84
2022-09-03T05:04:02.378Z,100571.13
2022-09-03T05:06:30.272Z,100571.13
2022-09-03T05:08:57.448Z,100581.09
2022-09-03T05:11:25.341Z,100583.56
2022-09-03T05:13:53.038Z,100584.41
2022-09-03T05:16:20.095Z,100579.44
2022-09-03T05:18:47.554Z,100574.31
2022-09-03T05:21:15.288Z,100579.13
2022-09-03T05:23:43.166Z,100571.00
2022-09-03T05:26:17.431Z,100566.88
2022-09-03T05:28:44.556Z,100568.16
2022-09-03T05:31:20.550Z,100567.66
2022-09-03T05:33:48.921Z,100573.13
2022-09-03T05:36:16.515Z,100571.00
2022-09-03T05:38:43.450Z,100564.19
2022-09-03T05:41:11.262Z,100569.31
2022-09-03T05:43:38.191Z,100570.31
2022-09-03T05:46:09.503Z,100572.66
2022-09-03T05:48:37.380Z,100573.31
2022-09-03T05:51:05.648Z,100579.44
2022-09-03T05:53:33.866Z,100583.94
2022-09-03T05:56:01.779Z,100577.78
2022-09-03T05:58:31.865Z,100583.56
2022-09-03T06:00:58.822Z,100580.75
2022-09-03T06:03:26.002Z,100577.13
2022-09-03T06:05:53.578Z,100575.31
2022-09-03T06:08:20.891Z,100580.63
2022-09-03T06:10:48.124Z,100592.41
2022-09-03T06:13:14.939Z,100592.06
2022-09-03T06:15:41.609Z,100590.09
2022-09-03T06:18:08.217Z,100595.22
2022-09-03T06:20:37.198Z,100593.75
2022-09-03T06:23:04.409Z,100592.59
2022-09-03T06:25:32.239Z,100595.09
2022-09-03T06:27:59.346Z,100595.91
2022-09-03T06:30:26.919Z,100596.25
2022-09-03T06:32:54.329Z,100586.78
2022-09-03T06:35:21.059Z,100593.41
2022-09-03T06:37:47.703Z,100596.75
2022-09-03T06:40:14.492Z,100592.09
2022-09-03T06:42:45.784Z,100592.59
2022-09-03T06:45:12.703Z,100600.22
2022-09-03T06:47:39.419Z,100597.41
2022-09-03T06:50:06.403Z,100597.06
2022-09-03T06:52:33.126Z,100602.69
2022-09-03T06:54:59.774Z,100597.75
2022-09-03T06:57:28.430Z,100604.69
2022-09-03T06:59:55.631Z,100616.63
2022-09-03T07:02:23.240Z,100617.75
2022-09-03T07:04:50.146Z,100612.97
2022-09-03T07:07:17.161Z,100611.13
2022-09-03T07:09:48.107Z,100618.06
2022-09-03T07:12:17.079Z,100615.25
2022-09-03T07:14:43.871Z,100602.34
2022-09-03T07:17:10.486Z,100612.00
2022-09-03T07:19:37.083Z,100604.38
2022-09-03T07:22:03.755Z,100615.13
2022-09-03T07:24:30.473Z,100612.00
2022-09-03T07:26:58.270Z,100622.94
2022-09-03T07:29:24.994Z,100616.94
2022-09-03T07:31:52.527Z,100620.59
2022-09-03T07:34:22.108Z,100623.25
2022-09-03T07:36:51.446Z,100628.06
2022-09-03T07:39:18.787Z,100626.41
2022-09-03T07:41:46.279Z,100624.41
2022-09-03T07:44:19.895Z,100625.25
2022-09-03T07:46:48.155Z,100632.53
2022-09-03T07:49:15.252Z,100633.03
2022-09-03T07:51:41.973Z,100629.88
2022-09-03T07:54:11.073Z,100629.06
2022-09-03T07:56:38.881Z,100633.53
2022-09-03T07:59:06.046Z,100626.06
2022-09-03T08:01:33.298Z,100628.72
2022-09-03T08:04:00.747Z,100636.84
2022-09-03T08:06:28.500Z,100643.66
2022-09-03T08:09:04.533Z,100643.66
2022-09-03T08:11:32.829Z,100641.31
2022-09-03T08:14:03.766Z,100632.84
2022-09-03T08:16:31.319Z,100640.13
2022-09-03T08:18:58.217Z,100651.59
2022-09-03T08:21:25.964Z,100654.25
2022-09-03T08:23:54.997Z,100662.53
2022-09-03T08:26:22.162Z,100655.38
2022-09-03T08:28:49.489Z,100666.66
2022-09-03T08:31:16.192Z,100672.28
2022-09-03T08:33:44.882Z,100661.03
2022-09-03T08:36:25.472Z,100666.50
2022-09-03T08:38:55.138Z,100666.50
2022-09-03T08:41:31.623Z,100657.56
2022-09-03T08:44:03.040Z,100661.69
2022-09-03T08:46:42.158Z,100659.19
2022-09-03T08:49:10.585Z,100660.53
2022-09-03T08:51:40.515Z,100669.16
2022-09-03T08:54:09.518Z,100663.69
2022-09-03T08:56:38.836Z,100669.16
2022-09-03T08:59:05.561Z,100670.81
2022-09-03T09:01:32.290Z,100678.41
2022-09-03T09:04:18.043Z,100669.13
2022-09-03T09:06:53.205Z,100673.78
2022-09-03T09:09:34.000Z,100671.25
2022-09-03T09:12:23.620Z,100674.09
2022-09-03T09:15:02.911Z,100674.63
2022-09-03T09:17:33.020Z,100667.84
2022-09-03T09:20:10.370Z,100663.69
2022-09-03T09:22:42.067Z,100666.19
2022-09-03T09:25:17.112Z,100655.75
2022-09-03T09:28:03.903Z,100658.88
2022-09-03T09:30:31.646Z,100667.00
2022-09-03T09:33:00.757Z,100664.69
2022-09-03T09:35:27.770Z,100665.66
2022-09-03T09:37:55.718Z,100664.50
2022-09-03T09:40:26.146Z,100665.34
2022-09-03T09:43:03.180Z,100668.47
2022-09-03T09:47:59.768Z,100670.31
2022-09-03T09:50:26.641Z,100668.31
2022-09-03T09:53:08.511Z,100665.50
2022-09-03T09:55:36.102Z,100670.81
2022-09-03T09:58:14.410Z,100666.84
2022-09-03T10:00:43.041Z,100668.66
2022-09-03T10:03:11.590Z,100662.03
2022-09-03T10:05:40.161Z,100671.97
2022-09-03T10:08:17.759Z,100659.03
2022-09-03T10:10:51.777Z,100671.97
2022-09-03T10:13:20.090Z,100673.47
2022-09-03T10:16:38.965Z,100676.97
2022-09-03T10:22:19.478Z,100666.34
2022-09-03T10:25:11.421Z,100661.53
2022-09-03T10:28:04.161Z,100659.53
2022-09-03T10:30:50.005Z,100666.34
2022-09-03T10:33:19.394Z,100655.06
2022-09-03T10:36:03.086Z,100655.06
2022-09-03T10:38:33.219Z,100658.38
2022-09-03T10:41:09.080Z,100654.06
2022-09-03T10:43:45.083Z,100660.22
2022-09-03T10:46:18.503Z,100656.25
2022-09-03T10:48:52.764Z,100657.03
2022-09-03T10:51:34.659Z,100650.75
2022-09-03T10:54:01.283Z,100664.84
2022-09-03T10:56:31.908Z,100659.53
2022-09-03T10:59:01.598Z,100658.69
2022-09-03T11:01:28.266Z,100666.50
2022-09-03T11:03:58.205Z,100661.88
2022-09-03T11:06:26.719Z,100656.72
2022-09-03T11:09:06.650Z,100657.53
2022-09-03T11:11:44.776Z,100658.53
2022-09-03T11:14:15.210Z,100659.88
2022-09-03T11:16:58.677Z,100650.22
2022-09-03T11:19:33.823Z,100663.16
2022-09-03T11:22:00.621Z,100650.03
2022-09-03T11:24:30.956Z,100646.56
2022-09-03T11:27:02.943Z,100659.50
2022-09-03T11:29:44.481Z,100649.56
2022-09-03T11:32:41.230Z,100649.56
2022-09-03T11:35:15.859Z,100648.72
2022-09-03T11:37:50.411Z,100642.25
2022-09-03T11:40:18.510Z,100642.94
2022-09-03T11:42:46.267Z,100645.06
2022-09-03T11:45:36.719Z,100642.56
2022-09-03T11:48:16.671Z,100645.06
2022-09-03T11:50:51.971Z,100638.59
2022-09-03T11:53:19.058Z,100642.56
2022-09-03T11:55:55.612Z,100643.41
2022-09-03T11:58:25.574Z,100625.34
2022-09-03T12:00:55.291Z,100637.78
2022-09-03T12:03:28.708Z,100625.16
2022-09-03T12:05:55.383Z,100635.09
2022-09-03T12:08:41.658Z,100629.97
2022-09-03T12:11:27.702Z,100629.97
2022-09-03T12:13:58.904Z,100631.13
2022-09-03T12:16:48.746Z,100636.94
2022-09-03T12:19:35.692Z,100636.44
2022-09-03T12:22:05.675Z,100635.28
2022-09-03T12:24:38.471Z,100637.25
2022-09-03T12:27:05.635Z,100639.44
2022-09-03T12:29:32.420Z,100640.25
2022-09-03T12:32:07.061Z,100633.78
2022-09-03T12:34:33.875Z,100643.59
2022-09-03T12:37:00.531Z,100654.88
2022-09-03T12:42:19.831Z,100651.38
2022-09-03T12:44:46.463Z,100651.22
2022-09-03T12:47:37.338Z,100652.00
2022-09-03T12:50:11.247Z,100661.31
2022-09-03T12:52:44.042Z,100651.22
2022-09-03T12:55:28.326Z,100657.19
2022-09-03T12:58:02.536Z,100666.78
2022-09-03T13:00:30.881Z,100670.94
2022-09-03T13:03:03.550Z,100682.69
2022-09-03T13:05:36.385Z,100684.88
2022-09-03T13:08:07.312Z,100687.53
2022-09-03T13:10:37.897Z,100686.34
2022-09-03T13:13:27.613Z,100685.38
2022-09-03T13:16:00.324Z,100689.34
2022-09-03T13:18:46.411Z,100680.06
2022-09-03T13:21:34.685Z,100677.25
2022-09-03T13:24:04.469Z,100683.38
2022-09-03T13:27:04.412Z,100684.22
2022-09-03T13:30:07.120Z,100685.38
2022-09-03T13:32:44.715Z,100679.72
2022-09-03T13:35:18.470Z,100676.59
2022-09-03T13:37:53.333Z,100674.09
2022-09-03T13:40:24.538Z,100676.59
2022-09-03T13:42:56.762Z,100664.47
2022-09-03T13:45:23.393Z,100669.28
2022-09-03T13:48:20.659Z,100661.66
2022-09-03T13:51:00.097Z,100669.75
2022-09-03T13:53:33.029Z,100668.94
2022-09-03T13:56:06.676Z,100662.50
2022-09-03T13:58:56.133Z,100678.72
2022-09-03T14:01:41.319Z,100673.41
2022-09-03T14:04:15.344Z,100679.06
2022-09-03T14:07:00.722Z,100676.22
2022-09-03T14:09:42.501Z,100676.22
2022-09-03T14:12:19.382Z,100690.00
2022-09-03T14:14:52.546Z,100688.03
2022-09-03T14:17:38.396Z,100679.56
2022-09-03T14:20:09.162Z,100680.72
2022-09-03T14:22:41.549Z,100669.44
2022-09-03T14:25:17.108Z,100681.53
2022-09-03T14:27:43.875Z,100681.88
2022-09-03T14:30:16.577Z,100688.34
2022-09-03T14:32:52.472Z,100696.47
2022-09-03T14:35:37.891Z,100691.66
2022-09-03T14:38:07.291Z,100677.75
2022-09-03T14:40:45.355Z,100679.75
2022-09-03T14:43:24.922Z,100672.94
2022-09-03T14:46:05.587Z,100681.41
2022-09-03T14:48:58.912Z,100690.34
2022-09-03T14:51:43.825Z,100687.53
2022-09-03T14:54:10.559Z,100674.75
2022-09-03T14:56:55.711Z,100686.38
2022-09-03T14:59:40.093Z,100679.41
2022-09-03T15:02:09.536Z,100684.22
2022-09-03T15:04:49.536Z,100677.44
2022-09-03T15:07:36.068Z,100687.06
2022-09-03T15:10:13.092Z,100682.56
2022-09-03T15:12:52.373Z,100690.34
2022-09-03T15:15:24.903Z,100679.91
2022-09-03T15:17:52.284Z,100691.53
2022-09-03T15:20:26.172Z,100690.03
2022-09-03T15:22:52.907Z,100688.34
2022-09-03T15:25:25.954Z,100695.16
2022-09-03T15:28:07.883Z,100692.34
2022-09-03T15:30:37.298Z,100689.50
2022-09-03T15:33:22.383Z,100701.97
2022-09-03T15:35:56.461Z,100701.97
2022-09-03T15:38:32.255Z,100703.63
2022-09-03T15:41:02.558Z,100701.16
2022-09-03T15:43:30.522Z,100708.94
2022-09-03T15:46:03.178Z,100715.25
2022-09-03T15:48:30.073Z,100714.41
2022-09-03T15:51:10.748Z,100717.25
2022-09-03T15:53:46.206Z,100727.00
2022-09-03T15:56:13.906Z,100731.81
2022-09-03T15:58:59.334Z,100721.38
2022-09-03T16:01:38.478Z,100719.72
2022-09-03T16:04:23.214Z,100718.91
2022-09-03T16:07:03.835Z,100733.00
2022-09-03T16:12:52.221Z,100726.53
2022-09-03T16:15:35.230Z,100725.69
2022-09-03T16:18:16.218Z,100738.63
2022-09-03T16:21:07.891Z,100744.59
2022-09-03T16:23:57.735Z,100747.44
2022-09-03T16:26:56.156Z,100751.41
2022-09-03T16:29:42.175Z,100749.09
2022-09-03T16:32:46.001Z,100752.75
2022-09-03T16:35:28.067Z,100761.69
2022-09-03T16:38:17.522Z,100752.91
2022-09-03T16:41:32.971Z,100762.66
2022-09-03T16:44:28.129Z,100765.50
2022-09-03T16:47:28.333Z,100769.00
2022-09-03T16:50:32.096Z,100767.16
2022-09-03T16:59:22.496Z,100772.47
2022-09-03T17:02:40.490Z,100771.63
2022-09-03T17:05:37.415Z,100782.59
2022-09-03T17:08:06.667Z,100777.28
2022-09-03T17:10:36.356Z,100766.69
2022-09-03T17:13:08.970Z,100760.84
2022-09-03T17:15:49.890Z,100776.78
2022-09-03T17:18:29.913Z,100768.13
2022-09-03T17:21:15.433Z,100763.50
2022-09-03T17:24:02.672Z,100776.28
2022-09-03T17:26:41.607Z,100773.63
2022-09-03T17:29:29.200Z,100786.59
2022-09-03T17:32:11.071Z,100780.28
2022-09-03T17:34:37.726Z,100781.78
2022-09-03T17:37:40.466Z,100785.06
2022-09-03T17:40:13.185Z,100792.38
2022-09-03T17:42:49.439Z,100802.47
2022-09-03T17:45:34.834Z,100795.69
2022-09-03T17:48:07.340Z,100804.94
2022-09-03T17:50:52.227Z,100815.91
2022-09-03T17:53:22.277Z,100818.88
2022-09-03T17:55:57.911Z,100817.06
2022-09-03T17:58:36.007Z,100816.22
2022-09-03T18:01:05.298Z,100814.56
2022-09-03T18:03:53.227Z,100821.88
2022-09-03T18:06:19.909Z,100827.81
2022-09-03T18:08:51.309Z,100829.50
2022-09-03T18:11:20.865Z,100828.34
2022-09-03T18:13:56.587Z,100833.31
2022-09-03T18:16:32.064Z,100829.00
2022-09-03T18:19:03.038Z,100833.81
2022-09-03T18:21:51.714Z,100835.47
2022-09-03T18:24:55.674Z,100832.31
2022-09-03T18:27:52.398Z,100834.50
2022-09-03T18:30:38.148Z,100836.97
2022-09-03T18:33:23.242Z,100840.63
2022-09-03T18:36:08.438Z,100844.09
2022-09-03T18:38:55.405Z,100844.41
2022-09-03T18:41:59.446Z,100849.22
2022-09-03T18:45:20.495Z,100857.19
2022-09-03T18:48:20.235Z,100854.53
2022-09-03T18:51:05.822Z,100852.38
2022-09-03T18:54:23.509Z,100857.50
2022-09-03T18:57:09.394Z,100850.38
2022-09-03T18:59:57.734Z,100856.84
2022-09-03T19:02:59.182Z,100855.84
2022-09-03T19:05:49.700Z,100858.66
2022-09-03T19:08:44.492Z,100870.09
2022-09-03T19:11:45.255Z,100864.31
2022-09-03T19:14:36.322Z,100863.16
2022-09-03T19:17:30.421Z,100870.94
2022-09-03T19:20:15.442Z,100867.28
2022-09-03T19:23:00.948Z,100872.13
2022-09-03T19:25:48.016Z,100874.44
2022-09-03T19:28:37.822Z,100883.22
2022-09-03T19:31:43.655Z,100884.88
2022-09-03T19:34:48.065Z,100890.81
2022-09-03T19:37:36.107Z,100887.84
2022-09-03T19:40:30.452Z,100893.81
2022-09-03T19:43:26.326Z,100892.31
2022-09-03T19:46:20.978Z,100902.09
2022-09-03T19:49:22.974Z,100907.25
2022-09-03T19:52:08.068Z,100908.38
2022-09-03T19:54:53.696Z,100911.53
2022-09-03T19:57:39.405Z,100929.94
2022-09-03T20:00:31.365Z,100924.44
2022-09-03T20:03:18.820Z,100932.22
2022-09-03T20:06:08.816Z,100921.63
2022-09-03T20:08:56.722Z,100931.22
2022-09-03T20:11:25.673Z,100927.25
2022-09-03T20:14:11.287Z,100930.38
2022-09-03T20:16:40.928Z,100940.81
2022-09-03T20:19:16.829Z,100932.72
2022-09-03T20:21:50.821Z,100924.91
2022-09-03T20:24:21.542Z,100937.00
2022-09-03T20:26:48.142Z,100939.31
2022-09-03T20:29:30.107Z,100932.03
2022-09-03T20:31:56.939Z,100943.97
2022-09-03T20:34:23.850Z,100947.91
2022-09-03T20:39:30.614Z,100948.91
2022-09-03T20:42:12.256Z,100945.25
2022-09-03T20:44:47.563Z,100939.59
2022-09-03T20:47:21.526Z,100950.03
2022-09-03T20:50:15.140Z,100955.03
2022-09-03T20:52:50.608Z,100964.81
2022-09-03T20:55:22.048Z,100967.25
2022-09-03T20:58:01.695Z,100960.13
2022-09-03T21:00:33.014Z,100958.75
2022-09-03T21:03:00.272Z,100961.94
2022-09-03T21:05:58.383Z,100962.22
2022-09-03T21:08:40.942Z,100968.81
2022-09-03T21:11:15.053Z,100956.69
2022-09-03T21:13:47.759Z,100958.69
2022-09-03T21:16:26.463Z,100959.53
2022-09-03T21:19:12.126Z,100957.53
2022-09-03T21:21:45.905Z,100975.44
2022-09-03T21:24:20.837Z,100966.66
2022-09-03T21:26:52.881Z,100973.41
2022-09-03T21:29:24.192Z,100980.19
2022-09-03T21:32:09.988Z,100982.19
2022-09-03T21:34:43.875Z,100976.91
2022-09-03T21:37:14.220Z,100989.50
2022-09-03T21:39:51.549Z,100985.53
2022-09-03T21:42:36.642Z,100979.72
2022-09-03T21:45:07.865Z,100987.63
2022-09-03T21:47:40.337Z,100985.84
2022-09-03T21:50:08.009Z,100986.34
2022-09-03T21:52:46.315Z,100981.56
2022-09-03T21:55:28.282Z,100988.97
2022-09-03T21:58:18.087Z,100984.28
2022-09-03T22:00:46.226Z,100990.56
2022-09-03T22:03:13.971Z,100980.47
2022-09-03T22:05:51.045Z,100995.56
2022-09-03T22:08:27.861Z,100982.13
2022-09-03T22:10:59.223Z,100983.09
2022-09-03T22:13:25.847Z,100985.25
2022-09-03T22:15:56.048Z,100988.91
2022-09-03T22:18:28.768Z,100983.50
2022-09-03T22:21:12.888Z,100977.03
2022-09-03T22:24:04.337Z,100975.34
2022-09-03T22:26:49.578Z,100984.63
2022-09-03T22:29:28.781Z,100982.66
2022-09-03T22:31:59.433Z,100991.28
2022-09-03T22:34:55.464Z,100982.31
2022-09-03T22:37:23.632Z,100988.28
2022-09-03T22:39:50.380Z,100980.97
2022-09-03T22:42:26.183Z,100986.31
2022-09-03T22:45:07.907Z,100986.63
2022-09-03T22:47:37.485Z,100979.84
2022-09-03T22:50:22.041Z,100990.44
2022-09-03T22:53:04.136Z,100991.09
2022-09-03T22:55:31.208Z,100991.41
2022-09-03T22:58:02.951Z,100982.97
2022-09-03T23:00:31.136Z,100982.44
2022-09-03T23:03:02.336Z,100983.28
2022-09-03T23:05:38.801Z,100986.44
2022-09-03T23:08:13.332Z,100985.59
2022-09-03T23:10:40.043Z,100991.22
2022-09-03T23:13:18.743Z,100993.69
2022-09-03T23:15:49.001Z,100996.34
2022-09-03T23:18:18.276Z,100991.22
2022-09-03T23:20:49.031Z,100985.06
2022-09-03T23:23:19.501Z,100993.53
2022-09-03T23:25:49.726Z,100989.03
2022-09-03T23:28:26.698Z,100992.38
2022-09-03T23:30:54.156Z,100988.22
2022-09-03T23:33:20.830Z,100986.56
2022-09-03T23:35:47.700Z,100996.16
2022-09-03T23:38:27.307Z,100991.66
2022-09-03T23:40:56.278Z,100993.16
2022-09-03T23:43:25.981Z,100998.97
2022-09-03T23:46:01.633Z,101000.09
2022-09-03T23:48:37.948Z,101000.09
2022-09-03T23:51:10.638Z,100998.44
2022-09-03T23:53:49.380Z,101000.44
2022-09-03T23:56:25.828Z,101002.09
2022-09-03T23:59:01.988Z,100996.59
